Time;durP1;ratioP1;P1;durP2;ratioP2;P2;SDS_P1;SDS_P2;PMS_P1;PMS_P2;Temp;Humidity;BMP_temperature;BMP_pressure;BME280_temperature;BME280_humidity;BME280_pressure;Samples;Min_cycle;Max_cycle;Signal;HPM_P1;HPM_P2
2021/10/24 00:00:26;;;;;;;29.85;15.88;;;11.30;99.90;;;;;;4993996;28;20048;-56
2021/10/24 00:03:31;;;;;;;27.65;16.85;;;11.10;99.90;;;;;;4991511;28;20045;-55
2021/10/24 00:06:35;;;;;;;28.83;16.58;;;11.10;99.90;;;;;;4990130;28;20053;-51
2021/10/24 00:09:39;;;;;;;27.10;16.27;;;11.10;99.90;;;;;;4992308;28;20061;-52
2021/10/24 00:12:43;;;;;;;27.30;17.15;;;11.10;99.90;;;;;;4999495;28;20061;-56
2021/10/24 00:15:47;;;;;;;33.50;19.50;;;11.10;99.90;;;;;;5003479;28;20053;-51
2021/10/24 00:18:51;;;;;;;33.13;19.20;;;11.10;99.90;;;;;;4993070;28;20058;-52
2021/10/24 00:21:55;;;;;;;29.65;18.40;;;11.00;99.90;;;;;;4988073;28;20509;-52
2021/10/24 00:24:59;;;;;;;30.48;17.60;;;11.00;99.90;;;;;;4994136;28;20061;-53
2021/10/24 00:28:03;;;;;;;28.15;17.30;;;11.00;99.90;;;;;;5003851;28;20050;-53
2021/10/24 00:31:08;;;;;;;32.55;18.25;;;11.00;99.90;;;;;;4990760;28;20125;-51
2021/10/24 00:34:12;;;;;;;32.75;17.45;;;11.00;99.90;;;;;;4995871;28;20045;-50
2021/10/24 00:37:15;;;;;;;32.28;19.15;;;11.00;99.90;;;;;;4990714;28;20042;-53
2021/10/24 00:40:20;;;;;;;40.60;19.00;;;10.90;99.90;;;;;;4993341;28;20042;-51
2021/10/24 00:43:24;;;;;;;29.95;18.73;;;10.90;99.90;;;;;;4985640;28;20048;-51
2021/10/24 00:46:29;;;;;;;29.05;16.27;;;10.80;99.90;;;;;;4998063;28;20049;-50
2021/10/24 00:49:34;;;;;;;30.42;18.67;;;10.70;99.90;;;;;;4993979;28;20053;-50
2021/10/24 00:52:40;;;;;;;28.20;17.85;;;10.70;99.90;;;;;;4995202;28;20133;-50
2021/10/24 00:55:44;;;;;;;28.70;18.00;;;10.70;99.90;;;;;;4984218;28;20052;-51
2021/10/24 00:58:50;;;;;;;29.15;18.05;;;10.70;99.90;;;;;;4999600;28;20069;-52
2021/10/24 01:01:54;;;;;;;33.95;19.20;;;10.70;99.90;;;;;;4995979;28;20069;-52
2021/10/24 01:04:59;;;;;;;30.58;17.90;;;10.70;99.90;;;;;;4995344;28;20071;-53
2021/10/24 01:08:04;;;;;;;31.15;18.33;;;10.60;99.90;;;;;;4994563;28;20060;-51
2021/10/24 01:11:08;;;;;;;28.10;17.20;;;10.60;99.90;;;;;;4997711;28;20045;-54
2021/10/24 01:14:12;;;;;;;28.80;17.63;;;10.70;99.90;;;;;;5004526;28;20053;-50
2021/10/24 01:17:19;;;;;;;24.63;15.43;;;10.70;99.90;;;;;;4987707;28;20037;-51
2021/10/24 01:20:25;;;;;;;32.33;15.27;;;11.00;99.90;;;;;;4994749;28;20046;-52
2021/10/24 01:23:30;;;;;;;31.35;15.13;;;11.00;99.90;;;;;;5001872;28;20049;-52
2021/10/24 01:26:36;;;;;;;26.52;15.43;;;11.00;99.90;;;;;;4989457;28;20512;-51
2021/10/24 01:29:41;;;;;;;28.23;16.08;;;11.00;99.90;;;;;;5002438;28;20121;-50
2021/10/24 01:32:46;;;;;;;30.23;16.42;;;10.90;99.90;;;;;;5001423;28;20044;-51
2021/10/24 01:36:01;;;;;;;31.77;19.25;;;10.80;99.90;;;;;;5002216;28;20547;-53
2021/10/24 01:39:07;;;;;;;28.02;17.45;;;10.80;99.90;;;;;;5002607;28;20041;-52
2021/10/24 01:42:12;;;;;;;28.45;16.98;;;10.90;99.90;;;;;;4996577;28;20042;-50
2021/10/24 01:45:17;;;;;;;27.05;16.38;;;10.80;99.90;;;;;;4991114;28;20041;-51
2021/10/24 01:48:23;;;;;;;29.67;18.55;;;10.80;99.90;;;;;;4982568;28;20045;-50
2021/10/24 01:51:27;;;;;;;27.35;16.92;;;10.70;99.90;;;;;;4999921;28;20048;-52
2021/10/24 01:54:31;;;;;;;28.88;17.52;;;10.70;99.90;;;;;;4991069;28;20038;-52
2021/10/24 01:57:36;;;;;;;26.65;16.50;;;10.60;99.90;;;;;;4991012;28;20041;-50
2021/10/24 02:00:42;;;;;;;29.17;17.58;;;10.60;99.90;;;;;;4987041;28;20527;-51
2021/10/24 02:03:47;;;;;;;30.33;17.15;;;10.60;99.90;;;;;;5012188;28;20057;-51
2021/10/24 02:07:23;;;;;;;27.27;17.30;;;10.50;99.90;;;;;;4990738;28;20512;-51
2021/10/24 02:10:28;;;;;;;23.55;15.52;;;10.50;99.90;;;;;;5007522;28;20041;-52
2021/10/24 02:13:32;;;;;;;25.55;15.95;;;10.50;99.90;;;;;;4989037;28;20404;-51
2021/10/24 02:16:42;;;;;;;25.35;15.25;;;10.50;99.90;;;;;;5002086;28;20049;-51
2021/10/24 02:19:46;;;;;;;24.17;14.90;;;10.60;99.90;;;;;;5001432;28;20058;-55
2021/10/24 02:22:51;;;;;;;20.35;12.77;;;10.60;99.90;;;;;;5001868;28;20045;-54
2021/10/24 02:25:56;;;;;;;19.48;12.65;;;10.50;99.90;;;;;;4997357;28;20061;-51
2021/10/24 02:29:00;;;;;;;18.35;11.52;;;10.60;99.90;;;;;;5016450;28;20053;-50
2021/10/24 02:32:06;;;;;;;14.95;10.02;;;10.80;99.90;;;;;;4989336;28;20296;-52
2021/10/24 02:35:25;;;;;;;12.65;8.23;;;10.80;99.90;;;;;;5015096;28;20519;-52
2021/10/24 02:38:29;;;;;;;16.92;8.73;;;11.10;99.90;;;;;;4996832;28;20052;-52
2021/10/24 02:41:35;;;;;;;12.57;8.48;;;11.20;99.90;;;;;;5001533;28;20041;-52
2021/10/24 02:44:39;;;;;;;13.38;7.20;;;11.30;99.90;;;;;;5000730;28;20056;-52
2021/10/24 02:47:43;;;;;;;13.05;8.10;;;11.20;99.90;;;;;;5014216;28;20057;-52
2021/10/24 02:50:50;;;;;;;13.13;8.13;;;11.20;99.90;;;;;;4999699;28;20049;-51
2021/10/24 02:53:56;;;;;;;13.35;7.15;;;11.10;99.90;;;;;;5012038;28;20050;-51
2021/10/24 02:57:02;;;;;;;12.77;7.20;;;11.10;99.90;;;;;;4996453;28;20058;-55
2021/10/24 03:00:08;;;;;;;15.40;8.57;;;11.20;99.90;;;;;;5002297;28;20107;-53
2021/10/24 03:03:12;;;;;;;11.20;6.90;;;11.00;99.90;;;;;;5007963;28;20497;-50
2021/10/24 03:06:18;;;;;;;11.80;7.88;;;11.20;99.90;;;;;;5004273;28;20068;-56
2021/10/24 03:09:22;;;;;;;14.73;8.20;;;11.20;99.90;;;;;;5013812;28;20045;-51
2021/10/24 03:12:27;;;;;;;10.55;7.40;;;11.20;99.90;;;;;;4994231;28;20137;-55
2021/10/24 03:15:31;;;;;;;11.65;8.13;;;11.40;99.90;;;;;;5006568;28;20053;-52
2021/10/24 03:18:36;;;;;;;12.80;8.18;;;11.40;99.90;;;;;;5016142;28;20508;-51
2021/10/24 03:21:40;;;;;;;15.00;6.95;;;11.30;99.90;;;;;;4996079;28;20070;-52
2021/10/24 03:24:44;;;;;;;10.15;7.32;;;11.30;99.90;;;;;;4997113;28;20599;-52
2021/10/24 03:27:48;;;;;;;12.85;6.32;;;11.20;99.90;;;;;;5000505;28;20045;-52
2021/10/24 03:30:56;;;;;;;10.77;6.47;;;11.30;99.90;;;;;;5006139;28;20041;-52
2021/10/24 03:34:01;;;;;;;11.63;7.85;;;11.50;99.90;;;;;;5004869;28;20507;-52
2021/10/24 03:37:05;;;;;;;13.32;8.10;;;11.40;99.90;;;;;;5009248;28;20040;-50
2021/10/24 03:40:12;;;;;;;11.70;7.57;;;11.20;99.90;;;;;;5013388;28;20049;-53
2021/10/24 03:43:17;;;;;;;14.93;7.07;;;11.00;99.90;;;;;;4993549;28;20342;-51
2021/10/24 03:46:21;;;;;;;12.18;7.05;;;10.90;99.90;;;;;;5012414;28;20049;-51
2021/10/24 03:49:26;;;;;;;15.73;7.43;;;10.90;99.90;;;;;;5014423;28;20057;-51
2021/10/24 03:52:30;;;;;;;11.40;7.53;;;10.90;99.90;;;;;;4999638;28;20437;-50
2021/10/24 03:55:35;;;;;;;11.68;7.50;;;10.80;99.90;;;;;;4997687;28;20417;-51
2021/10/24 03:58:44;;;;;;;11.80;6.32;;;10.80;99.90;;;;;;5013220;28;20471;-54
2021/10/24 04:01:52;;;;;;;12.93;7.68;;;10.70;99.90;;;;;;4999914;28;20045;-53
2021/10/24 04:04:56;;;;;;;12.80;7.03;;;10.70;99.90;;;;;;5007861;28;20046;-49
2021/10/24 04:08:00;;;;;;;11.45;6.95;;;10.60;99.90;;;;;;5001870;28;20053;-52
2021/10/24 04:11:04;;;;;;;9.63;6.45;;;10.60;99.90;;;;;;4986778;28;20056;-51
2021/10/24 04:14:11;;;;;;;19.05;9.32;;;10.50;99.90;;;;;;4992707;28;20046;-51
2021/10/24 04:17:17;;;;;;;13.32;8.98;;;10.40;99.90;;;;;;4996966;28;20424;-52
2021/10/24 04:20:25;;;;;;;17.60;8.30;;;10.30;99.90;;;;;;5011626;28;20044;-54
2021/10/24 04:23:30;;;;;;;12.25;8.05;;;10.30;99.90;;;;;;5004114;28;20053;-52
2021/10/24 04:26:35;;;;;;;13.52;8.23;;;10.30;99.90;;;;;;4994215;28;20412;-52
2021/10/24 04:29:39;;;;;;;13.65;8.82;;;10.30;99.90;;;;;;4991793;28;20503;-50
2021/10/24 04:32:44;;;;;;;12.48;8.90;;;10.40;99.90;;;;;;4995581;28;20046;-51
2021/10/24 04:35:48;;;;;;;20.15;10.32;;;10.40;99.90;;;;;;4995840;28;20041;-53
2021/10/24 04:38:53;;;;;;;15.55;9.43;;;10.50;99.90;;;;;;5000668;28;20041;-53
2021/10/24 04:41:57;;;;;;;13.43;8.95;;;10.40;99.90;;;;;;5014329;28;20054;-51
2021/10/24 04:45:03;;;;;;;20.95;10.15;;;10.30;99.90;;;;;;5010907;28;20077;-52
2021/10/24 04:48:07;;;;;;;19.10;10.60;;;10.30;99.90;;;;;;5053732;22;20537;-51
2021/10/24 04:51:19;;;;;;;17.88;10.82;;;10.30;99.90;;;;;;5075730;28;20035;-50
2021/10/24 04:54:23;;;;;;;17.17;9.88;;;10.30;99.90;;;;;;5073864;28;20608;-52
2021/10/24 04:57:28;;;;;;;15.55;10.13;;;10.30;99.90;;;;;;5075347;28;20055;-53
2021/10/24 05:00:33;;;;;;;17.92;9.93;;;10.30;99.90;;;;;;5074193;28;20044;-50
2021/10/24 05:03:38;;;;;;;19.13;9.57;;;10.20;99.90;;;;;;5068311;28;20047;-51
2021/10/24 05:06:42;;;;;;;16.50;9.85;;;10.10;99.90;;;;;;5068286;28;20402;-50
2021/10/24 05:09:47;;;;;;;13.98;9.13;;;10.00;99.90;;;;;;5076882;28;20293;-52
2021/10/24 05:12:51;;;;;;;17.30;10.00;;;9.90;99.90;;;;;;5078944;28;20047;-52
2021/10/24 05:15:55;;;;;;;17.60;10.13;;;9.80;99.90;;;;;;5078090;28;20051;-51
2021/10/24 05:18:59;;;;;;;18.73;10.40;;;9.80;99.90;;;;;;5083937;28;20035;-52
2021/10/24 05:22:04;;;;;;;20.90;10.75;;;9.80;99.90;;;;;;5078388;28;20114;-50
2021/10/24 05:25:10;;;;;;;14.20;9.18;;;9.80;99.90;;;;;;5067713;28;20042;-52
2021/10/24 05:28:17;;;;;;;13.98;8.63;;;9.70;99.90;;;;;;5076290;28;20043;-53
2021/10/24 05:31:23;;;;;;;19.02;9.63;;;9.80;99.90;;;;;;5074358;28;20051;-54
2021/10/24 05:34:42;;;;;;;18.10;8.50;;;9.80;99.90;;;;;;5068974;28;20047;-54
2021/10/24 05:37:51;;;;;;;17.77;9.68;;;9.90;99.90;;;;;;5067957;28;20032;-51
2021/10/24 05:40:56;;;;;;;15.30;9.70;;;9.90;99.90;;;;;;5068956;28;20047;-54
2021/10/24 05:44:00;;;;;;;15.63;9.60;;;9.90;99.90;;;;;;5079605;28;20047;-52
2021/10/24 05:47:04;;;;;;;15.88;9.30;;;10.00;99.90;;;;;;5078567;28;20032;-51
2021/10/24 05:50:09;;;;;;;19.13;10.02;;;9.90;99.90;;;;;;5076369;28;20513;-51
2021/10/24 05:53:13;;;;;;;15.25;8.88;;;9.80;99.90;;;;;;5064814;28;20056;-51
2021/10/24 05:56:17;;;;;;;24.00;11.35;;;9.80;99.90;;;;;;5061958;28;20031;-50
2021/10/24 05:59:23;;;;;;;24.38;11.32;;;9.80;99.90;;;;;;5079477;28;20043;-52
2021/10/24 06:02:38;;;;;;;16.60;9.88;;;9.80;99.90;;;;;;5064904;28;20044;-51
2021/10/24 06:06:05;;;;;;;16.17;8.70;;;9.70;99.90;;;;;;5080600;28;20516;-51
2021/10/24 06:09:09;;;;;;;16.95;8.00;;;9.70;99.90;;;;;;5079125;28;20035;-53
2021/10/24 06:15:52;;;;;;;16.05;8.38;;;10.10;99.90;;;;;;5035416;28;20040;-54
2021/10/24 06:18:58;;;;;;;16.08;8.50;;;10.70;99.90;;;;;;5086085;28;20047;-52
2021/10/24 06:22:04;;;;;;;8.60;5.45;;;13.20;99.90;;;;;;5082740;28;21029;-52
2021/10/24 06:25:11;;;;;;;7.03;4.53;;;16.30;99.90;;;;;;5077191;28;20036;-53
2021/10/24 06:28:15;;;;;;;7.22;4.80;;;17.80;99.90;;;;;;5076765;28;20033;-51
2021/10/24 06:31:21;;;;;;;7.20;4.22;;;18.70;99.90;;;;;;5075447;28;20045;-52
2021/10/24 06:34:45;;;;;;;9.15;3.72;;;20.40;99.90;;;;;;5066299;28;20514;-53
2021/10/24 06:38:17;;;;;;;5.80;3.95;;;21.70;99.90;;;;;;5072432;28;20398;-54
2021/10/24 06:41:21;;;;;;;7.55;3.90;;;21.60;99.90;;;;;;5067161;28;20036;-55
2021/10/24 06:44:41;;;;;;;4.82;3.45;;;23.50;99.00;;;;;;5079773;28;20040;-51
2021/10/24 06:48:23;;;;;;;7.65;4.07;;;24.30;97.00;;;;;;5084097;28;20044;-55
2021/10/24 06:51:54;;;;;;;5.78;4.28;;;22.70;97.30;;;;;;5086523;28;20047;-54
2021/10/24 06:55:17;;;;;;;5.60;3.47;;;22.20;98.90;;;;;;5075109;28;20040;-56
2021/10/24 06:58:50;;;;;;;5.63;3.83;;;23.80;97.40;;;;;;5058802;28;20048;-54
2021/10/24 07:02:13;;;;;;;8.20;4.60;;;24.70;93.90;;;;;;5077628;28;20036;-52
2021/10/24 07:05:43;;;;;;;6.72;4.38;;;24.00;94.40;;;;;;5072883;28;20406;-54
2021/10/24 07:08:51;;;;;;;6.10;3.78;;;24.30;93.30;;;;;;5074458;28;20043;-52
2021/10/24 07:11:55;;;;;;;5.07;3.92;;;24.40;94.10;;;;;;5079869;28;20529;-53
2021/10/24 07:14:59;;;;;;;6.45;3.60;;;24.80;92.70;;;;;;5080839;28;20047;-52
2021/10/24 07:18:04;;;;;;;5.50;3.58;;;24.50;92.70;;;;;;5078676;28;20065;-51
2021/10/24 07:21:08;;;;;;;9.60;4.40;;;26.30;91.70;;;;;;5073520;28;20043;-53
2021/10/24 07:24:12;;;;;;;7.03;5.18;;;27.10;91.00;;;;;;5087227;28;20505;-52
2021/10/24 07:27:19;;;;;;;6.35;4.50;;;28.20;88.80;;;;;;5071467;28;20043;-56
2021/10/24 07:30:23;;;;;;;6.00;3.95;;;28.50;88.20;;;;;;5076022;28;20028;-52
2021/10/24 07:33:31;;;;;;;6.40;3.28;;;29.50;87.30;;;;;;5078665;28;20050;-54
2021/10/24 07:36:46;;;;;;;4.55;2.88;;;30.90;83.60;;;;;;5076017;28;20033;-56
2021/10/24 07:39:50;;;;;;;4.78;2.40;;;31.80;80.80;;;;;;5081384;28;20509;-54
2021/10/24 07:42:55;;;;;;;3.72;2.60;;;32.30;79.00;;;;;;5080686;28;20039;-56
2021/10/24 07:46:00;;;;;;;4.53;2.50;;;32.80;75.80;;;;;;5072139;28;20043;-53
2021/10/24 07:49:06;;;;;;;4.32;3.30;;;32.60;75.70;;;;;;5080065;28;20121;-52
2021/10/24 07:52:11;;;;;;;4.20;2.83;;;28.70;76.00;;;;;;5079968;28;20037;-55
2021/10/24 07:55:15;;;;;;;3.28;2.47;;;29.60;79.00;;;;;;5081341;28;20052;-56
2021/10/24 07:58:21;;;;;;;6.28;2.80;;;27.90;77.90;;;;;;5070032;28;20398;-54
2021/10/24 08:01:26;;;;;;;7.32;3.08;;;24.60;83.20;;;;;;5074799;28;20036;-52
2021/10/24 08:04:33;;;;;;;3.80;3.03;;;26.30;84.20;;;;;;5083650;28;20055;-52
2021/10/24 08:07:39;;;;;;;5.78;2.75;;;24.60;83.60;;;;;;5073443;28;20047;-53
2021/10/24 08:10:44;;;;;;;2.78;2.25;;;27.30;81.80;;;;;;5078615;28;20514;-52
2021/10/24 08:13:49;;;;;;;7.07;3.33;;;29.00;80.60;;;;;;5082919;28;20406;-51
2021/10/24 08:16:53;;;;;;;3.95;3.00;;;25.40;80.90;;;;;;5073353;28;20040;-52
2021/10/24 08:20:03;;;;;;;5.15;2.70;;;25.70;83.20;;;;;;5079069;28;20083;-53
2021/10/24 08:23:08;;;;;;;5.32;2.80;;;27.40;82.40;;;;;;5080458;28;20036;-54
2021/10/24 08:26:13;;;;;;;4.85;2.50;;;30.10;79.00;;;;;;5073994;28;20058;-54
2021/10/24 08:29:17;;;;;;;4.20;2.30;;;32.70;76.40;;;;;;5066879;28;20050;-54
2021/10/24 08:33:13;;;;;;;4.22;2.28;;;31.40;73.40;;;;;;5106050;27;20192;-54
2021/10/24 08:36:16;;;;;;;4.65;2.70;;;33.50;72.60;;;;;;5098395;28;20393;-52
2021/10/24 08:39:20;;;;;;;4.18;2.40;;;35.50;70.00;;;;;;5101304;28;20024;-54
2021/10/24 08:42:32;;;;;;;4.13;2.40;;;29.20;70.20;;;;;;5098448;28;20040;-54
2021/10/24 08:45:37;;;;;;;5.93;3.28;;;29.20;75.90;;;;;;5124786;22;20044;-48
2021/10/24 08:48:41;;;;;;;3.35;2.80;;;28.70;75.00;;;;;;5103338;28;20040;-50
2021/10/24 08:51:46;;;;;;;8.55;3.00;;;26.80;76.50;;;;;;5102365;28;20044;-50
2021/10/24 08:54:53;;;;;;;4.63;3.00;;;24.90;81.80;;;;;;5106273;28;20035;-47
2021/10/24 08:57:58;;;;;;;6.75;4.97;;;26.00;81.60;;;;;;5104631;28;20028;-46
2021/10/24 09:01:02;;;;;;;7.50;4.30;;;29.70;77.30;;;;;;5104570;28;20043;-48
2021/10/24 09:04:08;;;;;;;9.10;5.05;;;31.00;72.60;;;;;;5106192;28;20040;-49
2021/10/24 09:07:12;;;;;;;6.22;3.40;;;27.80;75.30;;;;;;5104447;28;20036;-47
2021/10/24 09:10:41;;;;;;;9.73;5.70;;;28.00;75.40;;;;;;5097963;28;20032;-49
2021/10/24 09:13:48;;;;;;;7.43;4.85;;;31.10;73.60;;;;;;5102481;28;20398;-54
2021/10/24 09:16:52;;;;;;;8.90;5.13;;;31.40;71.80;;;;;;5103979;28;20031;-51
2021/10/24 09:20:00;;;;;;;9.60;4.82;;;32.50;70.50;;;;;;5103388;28;20036;-49
2021/10/24 09:23:07;;;;;;;8.50;5.47;;;32.30;69.70;;;;;;5104771;28;20035;-47
2021/10/24 09:26:28;;;;;;;8.63;5.53;;;34.20;68.30;;;;;;5101129;28;20032;-49
2021/10/24 09:29:35;;;;;;;5.32;2.72;;;30.10;68.50;;;;;;5104156;28;20379;-50
2021/10/24 09:32:52;;;;;;;5.97;3.38;;;29.80;67.00;;;;;;5100545;28;20031;-46
2021/10/24 09:36:01;;;;;;;6.07;4.10;;;31.50;69.20;;;;;;5103426;28;20517;-48
2021/10/24 09:39:37;;;;;;;3.97;1.60;;;29.80;71.40;;;;;;5099691;28;20024;-49
2021/10/24 09:42:41;;;;;;;3.63;2.90;;;27.00;68.20;;;;;;5098223;28;20529;-51
2021/10/24 09:46:13;;;;;;;5.70;2.22;;;28.10;70.30;;;;;;5087759;28;20032;-48
2021/10/24 09:49:18;;;;;;;3.35;2.13;;;25.60;71.50;;;;;;5091479;28;20036;-48
2021/10/24 09:52:32;;;;;;;4.57;2.33;;;27.70;68.20;;;;;;5085657;28;20486;-49
2021/10/24 09:55:42;;;;;;;2.55;2.10;;;27.90;63.60;;;;;;5086492;28;20032;-47
2021/10/24 09:58:49;;;;;;;4.28;2.03;;;28.10;67.60;;;;;;5089214;28;20040;-47
2021/10/24 10:01:53;;;;;;;3.50;1.92;;;31.10;67.90;;;;;;5091523;28;20036;-48
2021/10/24 10:04:58;;;;;;;5.47;2.28;;;27.50;66.00;;;;;;5090197;28;20028;-46
2021/10/24 10:08:09;;;;;;;4.22;1.83;;;25.80;68.40;;;;;;5089155;28;20388;-53
2021/10/24 10:11:39;;;;;;;3.22;2.25;;;30.20;70.80;;;;;;5090543;28;20520;-49
2021/10/24 10:14:44;;;;;;;5.50;1.83;;;32.40;68.80;;;;;;5091468;28;20043;-45
2021/10/24 10:17:56;;;;;;;5.85;3.38;;;30.30;60.00;;;;;;5087791;28;20036;-48
2021/10/24 10:21:02;;;;;;;2.47;1.70;;;29.50;60.70;;;;;;5089864;28;20387;-50
2021/10/24 10:24:09;;;;;;;3.95;1.27;;;28.40;61.00;;;;;;5091299;28;20036;-49
2021/10/24 10:27:34;;;;;;;3.03;1.38;;;29.10;61.20;;;;;;5088897;28;20032;-47
2021/10/24 10:30:39;;;;;;;2.92;1.42;;;29.90;59.40;;;;;;5086200;28;20024;-49
2021/10/24 10:33:58;;;;;;;3.88;1.40;;;29.50;59.10;;;;;;5088045;28;20028;-49
2021/10/24 10:37:02;;;;;;;2.38;1.38;;;28.50;59.50;;;;;;5090499;28;20036;-45
2021/10/24 10:40:13;;;;;;;6.32;1.70;;;27.00;60.90;;;;;;5088844;28;20032;-50
2021/10/24 10:43:20;;;;;;;3.35;1.20;;;27.70;62.60;;;;;;5088556;28;20044;-50
2021/10/24 10:46:28;;;;;;;2.95;1.20;;;28.30;60.40;;;;;;5086115;28;20048;-48
2021/10/24 10:49:33;;;;;;;2.22;1.10;;;28.90;58.20;;;;;;5087420;28;20411;-50
2021/10/24 10:52:39;;;;;;;2.30;1.30;;;29.70;59.50;;;;;;5085720;28;20507;-48
2021/10/24 10:56:06;;;;;;;3.60;1.65;;;31.10;58.30;;;;;;5086691;28;20044;-50
2021/10/24 10:59:28;;;;;;;2.75;1.38;;;28.70;60.00;;;;;;5090138;28;20032;-50
2021/10/24 11:02:34;;;;;;;3.58;2.17;;;28.60;58.50;;;;;;5083855;28;20028;-53
2021/10/24 11:05:39;;;;;;;3.65;2.83;;;28.80;66.00;;;;;;5089246;28;20032;-48
2021/10/24 11:08:54;;;;;;;4.15;2.45;;;26.20;68.50;;;;;;5090351;28;20055;-49
2021/10/24 11:11:59;;;;;;;4.63;2.60;;;25.30;70.60;;;;;;5089132;28;20044;-50
2021/10/24 11:15:10;;;;;;;3.30;1.98;;;25.70;71.00;;;;;;5088979;28;20040;-51
2021/10/24 11:18:32;;;;;;;5.78;1.63;;;25.60;65.80;;;;;;5082987;28;20032;-47
2021/10/24 11:21:38;;;;;;;2.38;1.23;;;28.70;61.00;;;;;;5089748;28;20028;-50
2021/10/24 11:24:48;;;;;;;1.40;0.90;;;28.60;57.50;;;;;;5085555;28;20044;-48
2021/10/24 11:27:52;;;;;;;2.63;1.13;;;27.60;59.30;;;;;;5087668;28;20041;-47
2021/10/24 11:31:08;;;;;;;2.30;1.10;;;26.60;58.70;;;;;;5087362;28;20028;-48
2021/10/24 11:34:30;;;;;;;2.90;1.40;;;26.10;59.50;;;;;;5085598;28;20041;-49
2021/10/24 11:37:38;;;;;;;2.35;1.27;;;25.60;60.50;;;;;;5084557;28;20433;-47
2021/10/24 11:40:45;;;;;;;2.50;1.60;;;24.80;63.20;;;;;;5085320;28;20031;-45
2021/10/24 11:44:10;;;;;;;4.22;1.38;;;24.50;62.80;;;;;;5087213;28;20042;-49
2021/10/24 11:47:15;;;;;;;4.88;1.10;;;23.70;63.90;;;;;;5082477;28;20059;-49
2021/10/24 11:50:43;;;;;;;1.88;1.20;;;23.30;62.70;;;;;;5088990;28;20398;-47
2021/10/24 11:53:48;;;;;;;2.33;1.40;;;22.60;64.20;;;;;;5087501;28;20533;-49
2021/10/24 11:57:27;;;;;;;2.30;1.40;;;22.00;66.20;;;;;;5088617;28;20047;-47
2021/10/24 12:01:06;;;;;;;3.85;1.70;;;22.00;66.70;;;;;;5087347;28;20037;-48
2021/10/24 12:04:11;;;;;;;6.65;1.83;;;22.40;68.00;;;;;;5088436;28;20044;-48
2021/10/24 12:07:17;;;;;;;5.03;2.42;;;23.00;69.80;;;;;;5087958;28;20055;-49
2021/10/24 12:10:37;;;;;;;3.30;2.55;;;23.50;69.80;;;;;;5087663;28;20047;-49
2021/10/24 12:13:41;;;;;;;4.47;2.08;;;23.10;71.90;;;;;;5084199;28;20024;-49
2021/10/24 12:16:46;;;;;;;3.90;2.00;;;22.50;70.50;;;;;;5086395;28;20036;-49
2021/10/24 12:20:09;;;;;;;3.38;1.70;;;22.80;69.90;;;;;;5087888;28;20028;-47
2021/10/24 12:23:16;;;;;;;4.25;1.45;;;23.90;68.00;;;;;;5083171;28;20047;-48
2021/10/24 12:26:34;;;;;;;1.52;1.10;;;24.00;66.40;;;;;;5082177;28;20039;-51
2021/10/24 12:29:38;;;;;;;7.13;3.47;;;23.40;63.70;;;;;;5085078;28;20028;-50
2021/10/24 12:33:16;;;;;;;4.97;2.30;;;23.60;65.70;;;;;;5086859;28;20049;-47
2021/10/24 12:36:32;;;;;;;4.53;1.40;;;24.20;64.10;;;;;;5081784;28;20036;-48
2021/10/24 12:39:36;;;;;;;1.52;0.93;;;24.70;62.60;;;;;;5087550;28;20021;-49
2021/10/24 12:42:44;;;;;;;3.22;1.55;;;24.90;61.30;;;;;;5089247;28;20397;-50
2021/10/24 12:45:51;;;;;;;3.45;1.52;;;25.30;61.30;;;;;;5085346;28;20036;-49
2021/10/24 12:48:56;;;;;;;1.85;1.10;;;25.70;60.20;;;;;;5086362;28;20209;-51
2021/10/24 12:52:16;;;;;;;2.47;1.10;;;26.30;60.90;;;;;;5088865;28;20509;-51
2021/10/24 12:55:20;;;;;;;1.52;1.10;;;27.60;60.00;;;;;;5087147;28;20032;-46
2021/10/24 12:58:24;;;;;;;2.72;1.40;;;29.00;60.10;;;;;;5083197;28;20414;-48
2021/10/24 13:01:29;;;;;;;1.73;0.95;;;29.50;59.00;;;;;;5082889;28;20035;-48
2021/10/24 13:04:34;;;;;;;2.75;0.88;;;29.70;57.60;;;;;;5086790;28;20038;-49
2021/10/24 13:07:39;;;;;;;1.80;0.88;;;29.00;55.60;;;;;;5083486;28;20045;-46
2021/10/24 13:10:43;;;;;;;2.33;1.30;;;28.50;56.60;;;;;;5088127;28;20028;-47
2021/10/24 13:13:48;;;;;;;2.50;1.00;;;28.90;56.50;;;;;;5085713;28;20054;-47
2021/10/24 13:16:53;;;;;;;3.42;1.00;;;28.60;55.00;;;;;;5087263;28;20394;-48
2021/10/24 13:19:57;;;;;;;3.05;1.38;;;28.50;56.40;;;;;;5091853;28;20047;-48
2021/10/24 13:23:05;;;;;;;1.95;1.13;;;28.10;57.00;;;;;;5091500;28;20043;-50
2021/10/24 13:26:09;;;;;;;2.95;1.30;;;27.90;57.50;;;;;;5088162;28;20039;-53
2021/10/24 13:29:14;;;;;;;2.92;0.90;;;27.90;56.70;;;;;;5089144;28;20050;-50
2021/10/24 13:32:19;;;;;;;2.75;1.00;;;28.10;57.40;;;;;;5087276;28;20036;-50
2021/10/24 13:35:24;;;;;;;1.98;1.00;;;28.00;58.90;;;;;;5090059;28;20032;-49
2021/10/24 13:38:31;;;;;;;1.67;0.98;;;27.70;59.90;;;;;;5090839;28;20027;-49
2021/10/24 13:41:36;;;;;;;3.15;1.58;;;26.40;64.80;;;;;;5088891;28;20043;-51
2021/10/24 13:44:40;;;;;;;3.03;1.33;;;25.90;66.40;;;;;;5088309;28;20039;-50
2021/10/24 13:47:45;;;;;;;2.35;1.23;;;25.00;67.80;;;;;;5087442;28;20032;-50
2021/10/24 13:50:49;;;;;;;2.75;1.40;;;25.20;69.00;;;;;;5089841;28;20055;-48
2021/10/24 13:53:53;;;;;;;5.38;1.70;;;25.10;68.60;;;;;;5090251;28;20029;-49
2021/10/24 13:56:58;;;;;;;4.03;1.98;;;25.20;67.40;;;;;;5090818;28;20039;-48
2021/10/24 14:00:04;;;;;;;4.70;1.52;;;25.50;67.60;;;;;;5091276;28;20051;-49
2021/10/24 14:03:09;;;;;;;4.30;1.45;;;25.10;67.50;;;;;;5091627;28;20533;-48
2021/10/24 14:06:13;;;;;;;5.57;1.60;;;23.80;68.60;;;;;;5090931;28;20051;-50
2021/10/24 14:09:17;;;;;;;2.60;1.33;;;24.60;69.40;;;;;;5084091;28;20044;-49
2021/10/24 14:12:23;;;;;;;4.10;1.60;;;23.10;70.50;;;;;;5090471;28;20032;-48
2021/10/24 14:15:28;;;;;;;3.92;1.55;;;23.70;70.10;;;;;;5087591;28;20036;-49
2021/10/24 14:18:33;;;;;;;3.20;1.30;;;23.90;71.60;;;;;;5085194;28;20032;-51
2021/10/24 14:21:37;;;;;;;2.83;1.33;;;24.20;70.70;;;;;;5091790;28;20505;-49
2021/10/24 14:24:41;;;;;;;3.13;1.20;;;24.10;71.20;;;;;;5089347;28;20035;-49
2021/10/24 14:27:45;;;;;;;5.13;1.65;;;23.70;72.00;;;;;;5089631;28;20058;-48
2021/10/24 14:30:50;;;;;;;7.03;1.50;;;23.40;72.60;;;;;;5091252;28;20090;-50
2021/10/24 14:33:54;;;;;;;5.00;1.45;;;23.00;73.80;;;;;;5089453;28;20043;-49
2021/10/24 14:36:59;;;;;;;5.70;1.42;;;22.60;74.30;;;;;;5090099;28;20232;-47
2021/10/24 14:40:04;;;;;;;4.85;1.70;;;22.10;74.30;;;;;;5090235;28;20521;-50
2021/10/24 14:43:09;;;;;;;2.95;1.40;;;21.90;75.00;;;;;;5089218;28;20035;-50
2021/10/24 14:46:14;;;;;;;2.35;1.50;;;21.60;75.30;;;;;;5093876;22;20052;-52
2021/10/24 14:49:19;;;;;;;2.70;1.60;;;21.40;77.30;;;;;;5062434;28;20486;-54
2021/10/24 14:52:23;;;;;;;3.67;1.77;;;21.00;77.00;;;;;;5064496;28;20517;-53
2021/10/24 14:55:28;;;;;;;3.53;1.55;;;20.90;78.40;;;;;;5063439;28;20052;-53
2021/10/24 14:58:31;;;;;;;7.95;2.25;;;20.60;79.00;;;;;;5066716;28;20016;-54
2021/10/24 15:01:35;;;;;;;6.78;1.95;;;20.30;76.60;;;;;;5064951;28;20040;-51
2021/10/24 15:04:39;;;;;;;5.70;1.90;;;20.10;77.00;;;;;;5065637;28;20016;-53
2021/10/24 15:07:44;;;;;;;5.22;1.70;;;19.90;78.90;;;;;;5066651;28;20032;-52
2021/10/24 15:10:49;;;;;;;4.93;1.60;;;19.70;79.50;;;;;;5066061;28;20047;-54
2021/10/24 15:13:53;;;;;;;5.40;2.13;;;19.40;82.10;;;;;;5066000;28;20032;-54
2021/10/24 15:17:02;;;;;;;3.22;1.52;;;19.20;81.10;;;;;;5068634;28;20543;-51
2021/10/24 15:23:31;;;;;;;5.22;1.90;;;18.80;82.40;;;;;;5063444;28;20040;-53
2021/10/24 15:26:36;;;;;;;6.05;3.08;;;18.60;80.60;;;;;;5066670;28;20040;-53
2021/10/24 15:29:40;;;;;;;10.95;2.92;;;18.50;83.00;;;;;;5065752;28;20043;-52
2021/10/24 15:32:44;;;;;;;4.45;2.03;;;18.40;84.60;;;;;;5067066;28;20055;-51
2021/10/24 15:35:48;;;;;;;8.55;1.58;;;18.00;79.20;;;;;;5066316;28;20039;-52
2021/10/24 15:38:53;;;;;;;4.45;1.60;;;17.60;75.90;;;;;;5067057;28;20049;-53
2021/10/24 15:41:57;;;;;;;3.53;1.73;;;17.30;75.80;;;;;;5067749;28;20048;-53
2021/10/24 15:45:01;;;;;;;2.83;1.70;;;17.10;77.30;;;;;;5068643;28;20043;-52
2021/10/24 15:48:05;;;;;;;4.82;1.85;;;17.00;81.50;;;;;;5069166;28;20048;-53
2021/10/24 15:51:11;;;;;;;5.95;2.00;;;16.80;83.00;;;;;;5062209;28;20040;-53
2021/10/24 15:54:17;;;;;;;3.55;1.52;;;16.70;85.60;;;;;;5067550;28;20039;-53
2021/10/24 15:57:23;;;;;;;2.97;1.60;;;16.60;87.10;;;;;;5066314;28;20343;-55
2021/10/24 16:00:26;;;;;;;3.10;1.50;;;16.40;88.20;;;;;;5064888;28;20040;-55
2021/10/24 16:03:31;;;;;;;4.78;1.52;;;16.20;88.80;;;;;;5065499;28;20036;-52
2021/10/24 16:06:35;;;;;;;5.05;1.70;;;16.00;90.10;;;;;;5063957;28;20406;-53
2021/10/24 16:09:40;;;;;;;2.92;1.50;;;15.70;90.50;;;;;;5058288;28;20038;-52
2021/10/24 16:12:43;;;;;;;3.42;1.30;;;15.50;91.10;;;;;;5067905;28;20040;-53
2021/10/24 16:15:48;;;;;;;3.40;1.50;;;15.20;90.80;;;;;;5051592;28;20032;-52